sensor_id;sensor_type;location;lat;lon;timestamp;temperature;humidity
39751;DHT22;37579;51.074;17.004;2023-02-15T00:01:20;23.60;56.80
39751;DHT22;37579;51.074;17.004;2023-02-15T00:03:48;23.60;56.90
39751;DHT22;37579;51.074;17.004;2023-02-15T00:06:14;23.60;56.80
39751;DHT22;37579;51.074;17.004;2023-02-15T00:08:40;23.60;56.80
39751;DHT22;37579;51.074;17.004;2023-02-15T00:11:12;23.60;56.90
39751;DHT22;37579;51.074;17.004;2023-02-15T00:13:38;23.60;56.90
39751;DHT22;37579;51.074;17.004;2023-02-15T00:16:10;23.60;56.80
39751;DHT22;37579;51.074;17.004;2023-02-15T00:18:37;23.50;56.70
39751;DHT22;37579;51.074;17.004;2023-02-15T00:21:08;23.60;56.80
39751;DHT22;37579;51.074;17.004;2023-02-15T00:23:35;23.50;56.80
39751;DHT22;37579;51.074;17.004;2023-02-15T00:26:08;23.50;56.70
39751;DHT22;37579;51.074;17.004;2023-02-15T00:28:34;23.50;56.80
39751;DHT22;37579;51.074;17.004;2023-02-15T00:31:10;23.50;56.80
39751;DHT22;37579;51.074;17.004;2023-02-15T00:33:38;23.50;56.80
39751;DHT22;37579;51.074;17.004;2023-02-15T00:36:06;23.40;57.10
39751;DHT22;37579;51.074;17.004;2023-02-15T00:38:33;23.40;57.40
39751;DHT22;37579;51.074;17.004;2023-02-15T00:41:00;23.40;57.30
39751;DHT22;37579;51.074;17.004;2023-02-15T00:43:28;23.40;57.30
39751;DHT22;37579;51.074;17.004;2023-02-15T00:45:54;23.40;57.40
39751;DHT22;37579;51.074;17.004;2023-02-15T00:48:20;23.40;57.40
39751;DHT22;37579;51.074;17.004;2023-02-15T00:50:49;23.30;57.40
39751;DHT22;37579;51.074;17.004;2023-02-15T00:53:15;23.30;57.40
39751;DHT22;37579;51.074;17.004;2023-02-15T00:55:41;23.30;57.50
39751;DHT22;37579;51.074;17.004;2023-02-15T00:58:09;23.30;57.40
39751;DHT22;37579;51.074;17.004;2023-02-15T01:00:35;23.30;57.50
39751;DHT22;37579;51.074;17.004;2023-02-15T01:03:01;23.30;57.50
39751;DHT22;37579;51.074;17.004;2023-02-15T01:05:27;23.30;57.40
39751;DHT22;37579;51.074;17.004;2023-02-15T01:07:53;23.30;57.40
39751;DHT22;37579;51.074;17.004;2023-02-15T01:10:18;23.30;57.40
39751;DHT22;37579;51.074;17.004;2023-02-15T01:12:44;23.30;57.40
39751;DHT22;37579;51.074;17.004;2023-02-15T01:15:10;23.20;57.30
39751;DHT22;37579;51.074;17.004;2023-02-15T01:17:36;23.30;57.30
39751;DHT22;37579;51.074;17.004;2023-02-15T01:20:03;23.20;57.30
39751;DHT22;37579;51.074;17.004;2023-02-15T01:22:29;23.20;57.30
39751;DHT22;37579;51.074;17.004;2023-02-15T01:24:55;23.20;57.30
39751;DHT22;37579;51.074;17.004;2023-02-15T01:27:21;23.20;57.30
39751;DHT22;37579;51.074;17.004;2023-02-15T01:29:47;23.20;57.30
39751;DHT22;37579;51.074;17.004;2023-02-15T01:32:14;23.20;57.30
39751;DHT22;37579;51.074;17.004;2023-02-15T01:34:42;23.20;57.30
39751;DHT22;37579;51.074;17.004;2023-02-15T01:37:08;23.20;57.20
39751;DHT22;37579;51.074;17.004;2023-02-15T01:39:34;23.10;57.20
39751;DHT22;37579;51.074;17.004;2023-02-15T01:42:00;23.10;57.30
39751;DHT22;37579;51.074;17.004;2023-02-15T01:47:17;23.10;57.20
39751;DHT22;37579;51.074;17.004;2023-02-15T01:49:46;23.10;57.20
39751;DHT22;37579;51.074;17.004;2023-02-15T01:52:14;23.10;57.20
39751;DHT22;37579;51.074;17.004;2023-02-15T01:54:44;23.10;57.20
39751;DHT22;37579;51.074;17.004;2023-02-15T01:57:16;23.10;57.20
39751;DHT22;37579;51.074;17.004;2023-02-15T01:59:47;23.10;57.20
39751;DHT22;37579;51.074;17.004;2023-02-15T02:02:16;23.00;57.10
39751;DHT22;37579;51.074;17.004;2023-02-15T02:04:49;23.10;57.10
39751;DHT22;37579;51.074;17.004;2023-02-15T02:07:20;23.10;57.10
39751;DHT22;37579;51.074;17.004;2023-02-15T02:09:47;23.10;57.00
39751;DHT22;37579;51.074;17.004;2023-02-15T02:12:14;23.00;57.00
39751;DHT22;37579;51.074;17.004;2023-02-15T02:14:41;23.00;57.00
39751;DHT22;37579;51.074;17.004;2023-02-15T02:18:03;23.00;57.00
39751;DHT22;37579;51.074;17.004;2023-02-15T02:20:17;23.00;56.90
39751;DHT22;37579;51.074;17.004;2023-02-15T02:39:30;23.00;56.80
39751;DHT22;37579;51.074;17.004;2023-02-15T02:42:10;23.00;56.80
39751;DHT22;37579;51.074;17.004;2023-02-15T02:44:50;23.00;56.80
39751;DHT22;37579;51.074;17.004;2023-02-15T02:47:26;23.00;56.80
39751;DHT22;37579;51.074;17.004;2023-02-15T02:50:01;23.00;56.80
39751;DHT22;37579;51.074;17.004;2023-02-15T02:52:45;23.00;56.70
39751;DHT22;37579;51.074;17.004;2023-02-15T02:55:33;22.90;56.70
39751;DHT22;37579;51.074;17.004;2023-02-15T03:00:59;22.90;56.70
39751;DHT22;37579;51.074;17.004;2023-02-15T03:03:32;23.00;56.70
39751;DHT22;37579;51.074;17.004;2023-02-15T03:06:04;22.90;56.60
39751;DHT22;37579;51.074;17.004;2023-02-15T03:08:41;22.90;56.60
39751;DHT22;37579;51.074;17.004;2023-02-15T03:11:09;22.90;56.60
39751;DHT22;37579;51.074;17.004;2023-02-15T03:13:36;22.90;56.60
39751;DHT22;37579;51.074;17.004;2023-02-15T03:16:05;22.90;56.50
39751;DHT22;37579;51.074;17.004;2023-02-15T03:18:54;22.90;56.50
39751;DHT22;37579;51.074;17.004;2023-02-15T03:21:30;22.90;56.50
39751;DHT22;37579;51.074;17.004;2023-02-15T03:24:09;22.90;56.60
39751;DHT22;37579;51.074;17.004;2023-02-15T03:26:36;22.90;56.60
39751;DHT22;37579;51.074;17.004;2023-02-15T03:29:05;22.90;56.50
39751;DHT22;37579;51.074;17.004;2023-02-15T03:31:37;22.90;56.50
39751;DHT22;37579;51.074;17.004;2023-02-15T03:34:06;22.90;56.50
39751;DHT22;37579;51.074;17.004;2023-02-15T03:36:56;22.80;56.40
39751;DHT22;37579;51.074;17.004;2023-02-15T03:39:59;22.80;56.40
39751;DHT22;37579;51.074;17.004;2023-02-15T03:42:50;22.80;56.40
39751;DHT22;37579;51.074;17.004;2023-02-15T03:45:24;22.80;56.40
39751;DHT22;37579;51.074;17.004;2023-02-15T03:47:52;22.80;56.30
39751;DHT22;37579;51.074;17.004;2023-02-15T03:50:33;22.80;56.40
39751;DHT22;37579;51.074;17.004;2023-02-15T03:53:21;22.80;56.30
39751;DHT22;37579;51.074;17.004;2023-02-15T03:55:48;22.80;56.30
39751;DHT22;37579;51.074;17.004;2023-02-15T03:58:14;22.80;56.30
39751;DHT22;37579;51.074;17.004;2023-02-15T04:01:03;22.80;56.30
39751;DHT22;37579;51.074;17.004;2023-02-15T04:03:55;22.80;56.20
39751;DHT22;37579;51.074;17.004;2023-02-15T04:06:22;22.80;56.20
39751;DHT22;37579;51.074;17.004;2023-02-15T04:08:48;22.80;56.20
39751;DHT22;37579;51.074;17.004;2023-02-15T04:11:32;22.80;56.20
39751;DHT22;37579;51.074;17.004;2023-02-15T04:13:58;22.80;56.10
39751;DHT22;37579;51.074;17.004;2023-02-15T04:16:24;22.80;56.10
39751;DHT22;37579;51.074;17.004;2023-02-15T04:18:50;22.80;56.10
39751;DHT22;37579;51.074;17.004;2023-02-15T04:21:35;22.80;56.10
39751;DHT22;37579;51.074;17.004;2023-02-15T04:24:19;22.80;56.00
39751;DHT22;37579;51.074;17.004;2023-02-15T04:27:04;22.80;56.00
39751;DHT22;37579;51.074;17.004;2023-02-15T04:29:31;22.90;55.90
39751;DHT22;37579;51.074;17.004;2023-02-15T04:32:00;22.90;55.70
39751;DHT22;37579;51.074;17.004;2023-02-15T04:34:27;23.00;55.50
39751;DHT22;37579;51.074;17.004;2023-02-15T04:36:52;23.00;55.20
39751;DHT22;37579;51.074;17.004;2023-02-15T04:39:18;23.10;55.10
39751;DHT22;37579;51.074;17.004;2023-02-15T04:41:45;23.20;55.10
39751;DHT22;37579;51.074;17.004;2023-02-15T04:44:11;23.20;54.90
39751;DHT22;37579;51.074;17.004;2023-02-15T04:46:37;23.20;54.80
39751;DHT22;37579;51.074;17.004;2023-02-15T04:49:03;23.20;54.70
39751;DHT22;37579;51.074;17.004;2023-02-15T04:51:29;23.20;54.60
39751;DHT22;37579;51.074;17.004;2023-02-15T04:53:55;23.20;54.50
39751;DHT22;37579;51.074;17.004;2023-02-15T04:56:22;23.30;54.60
39751;DHT22;37579;51.074;17.004;2023-02-15T04:58:48;23.30;54.50
39751;DHT22;37579;51.074;17.004;2023-02-15T05:01:14;23.30;54.40
39751;DHT22;37579;51.074;17.004;2023-02-15T05:03:40;23.30;54.30
39751;DHT22;37579;51.074;17.004;2023-02-15T05:06:06;23.30;54.30
39751;DHT22;37579;51.074;17.004;2023-02-15T05:08:32;23.30;54.30
39751;DHT22;37579;51.074;17.004;2023-02-15T05:10:58;23.30;54.20
39751;DHT22;37579;51.074;17.004;2023-02-15T05:13:24;23.30;54.20
39751;DHT22;37579;51.074;17.004;2023-02-15T05:15:51;23.30;54.20
39751;DHT22;37579;51.074;17.004;2023-02-15T05:18:19;23.30;54.10
39751;DHT22;37579;51.074;17.004;2023-02-15T05:20:46;23.30;54.00
39751;DHT22;37579;51.074;17.004;2023-02-15T05:23:12;23.30;54.00
39751;DHT22;37579;51.074;17.004;2023-02-15T05:25:38;23.40;53.90
39751;DHT22;37579;51.074;17.004;2023-02-15T05:28:25;23.40;53.90
39751;DHT22;37579;51.074;17.004;2023-02-15T05:31:10;23.40;53.80
39751;DHT22;37579;51.074;17.004;2023-02-15T05:33:36;23.40;53.80
39751;DHT22;37579;51.074;17.004;2023-02-15T05:36:03;23.40;53.70
39751;DHT22;37579;51.074;17.004;2023-02-15T05:38:29;23.40;53.70
39751;DHT22;37579;51.074;17.004;2023-02-15T05:40:55;23.40;53.80
39751;DHT22;37579;51.074;17.004;2023-02-15T05:43:21;23.40;54.00
39751;DHT22;37579;51.074;17.004;2023-02-15T05:45:49;23.50;54.40
39751;DHT22;37579;51.074;17.004;2023-02-15T05:48:15;23.50;54.90
39751;DHT22;37579;51.074;17.004;2023-02-15T05:50:42;23.50;55.00
39751;DHT22;37579;51.074;17.004;2023-02-15T05:53:07;23.50;55.10
39751;DHT22;37579;51.074;17.004;2023-02-15T05:55:33;23.50;55.20
39751;DHT22;37579;51.074;17.004;2023-02-15T05:57:59;23.50;55.20
39751;DHT22;37579;51.074;17.004;2023-02-15T06:00:25;23.50;55.30
39751;DHT22;37579;51.074;17.004;2023-02-15T06:02:51;23.50;55.30
39751;DHT22;37579;51.074;17.004;2023-02-15T06:05:16;23.50;55.10
39751;DHT22;37579;51.074;17.004;2023-02-15T06:07:43;23.50;54.60
39751;DHT22;37579;51.074;17.004;2023-02-15T06:10:10;23.50;54.80
39751;DHT22;37579;51.074;17.004;2023-02-15T06:12:36;23.50;54.60
39751;DHT22;37579;51.074;17.004;2023-02-15T06:15:02;23.50;54.50
39751;DHT22;37579;51.074;17.004;2023-02-15T06:17:28;23.50;54.40
39751;DHT22;37579;51.074;17.004;2023-02-15T06:19:54;23.50;54.20
39751;DHT22;37579;51.074;17.004;2023-02-15T06:22:19;23.50;54.20
39751;DHT22;37579;51.074;17.004;2023-02-15T06:24:46;23.50;54.80
39751;DHT22;37579;51.074;17.004;2023-02-15T06:27:12;23.50;54.20
39751;DHT22;37579;51.074;17.004;2023-02-15T06:29:38;23.50;54.00
39751;DHT22;37579;51.074;17.004;2023-02-15T06:32:04;23.60;54.00
39751;DHT22;37579;51.074;17.004;2023-02-15T06:34:30;23.60;54.00
39751;DHT22;37579;51.074;17.004;2023-02-15T06:36:56;23.60;53.90
39751;DHT22;37579;51.074;17.004;2023-02-15T06:39:22;23.60;53.90
39751;DHT22;37579;51.074;17.004;2023-02-15T06:41:47;23.60;53.80
39751;DHT22;37579;51.074;17.004;2023-02-15T06:44:13;23.60;53.60
39751;DHT22;37579;51.074;17.004;2023-02-15T06:46:39;23.60;53.50
39751;DHT22;37579;51.074;17.004;2023-02-15T06:49:05;23.60;53.50
39751;DHT22;37579;51.074;17.004;2023-02-15T06:51:31;23.70;53.70
39751;DHT22;37579;51.074;17.004;2023-02-15T06:53:57;23.70;53.70
39751;DHT22;37579;51.074;17.004;2023-02-15T06:56:23;23.70;53.90
39751;DHT22;37579;51.074;17.004;2023-02-15T06:58:48;23.80;53.90
39751;DHT22;37579;51.074;17.004;2023-02-15T07:01:18;23.80;54.10
39751;DHT22;37579;51.074;17.004;2023-02-15T07:03:44;23.90;54.10
39751;DHT22;37579;51.074;17.004;2023-02-15T07:06:11;23.90;54.00
39751;DHT22;37579;51.074;17.004;2023-02-15T07:08:37;23.90;54.00
39751;DHT22;37579;51.074;17.004;2023-02-15T07:11:05;24.00;53.90
39751;DHT22;37579;51.074;17.004;2023-02-15T07:13:50;24.00;53.90
39751;DHT22;37579;51.074;17.004;2023-02-15T07:16:18;24.10;54.00
39751;DHT22;37579;51.074;17.004;2023-02-15T07:18:45;24.10;54.10
39751;DHT22;37579;51.074;17.004;2023-02-15T07:21:11;24.10;54.10
39751;DHT22;37579;51.074;17.004;2023-02-15T07:23:38;24.10;54.10
39751;DHT22;37579;51.074;17.004;2023-02-15T07:26:05;24.10;54.10
39751;DHT22;37579;51.074;17.004;2023-02-15T07:28:31;24.20;54.00
39751;DHT22;37579;51.074;17.004;2023-02-15T07:30:57;24.30;54.20
39751;DHT22;37579;51.074;17.004;2023-02-15T07:33:23;24.40;53.90
39751;DHT22;37579;51.074;17.004;2023-02-15T07:35:50;24.40;53.80
39751;DHT22;37579;51.074;17.004;2023-02-15T07:38:18;24.50;53.70
39751;DHT22;37579;51.074;17.004;2023-02-15T07:40:44;24.60;53.80
39751;DHT22;37579;51.074;17.004;2023-02-15T07:43:10;24.60;53.70
39751;DHT22;37579;51.074;17.004;2023-02-15T07:45:36;24.60;53.70
39751;DHT22;37579;51.074;17.004;2023-02-15T07:48:03;24.60;53.70
39751;DHT22;37579;51.074;17.004;2023-02-15T07:50:29;24.60;53.20
39751;DHT22;37579;51.074;17.004;2023-02-15T07:52:55;24.50;53.20
39751;DHT22;37579;51.074;17.004;2023-02-15T07:55:21;24.50;53.30
39751;DHT22;37579;51.074;17.004;2023-02-15T07:57:49;24.40;53.30
39751;DHT22;37579;51.074;17.004;2023-02-15T08:00:16;24.40;53.30
39751;DHT22;37579;51.074;17.004;2023-02-15T08:02:48;24.40;53.30
39751;DHT22;37579;51.074;17.004;2023-02-15T08:05:14;24.40;53.20
39751;DHT22;37579;51.074;17.004;2023-02-15T08:07:42;24.40;53.20
39751;DHT22;37579;51.074;17.004;2023-02-15T08:10:08;24.40;53.10
39751;DHT22;37579;51.074;17.004;2023-02-15T08:12:34;24.40;53.10
39751;DHT22;37579;51.074;17.004;2023-02-15T08:15:00;24.40;53.10
39751;DHT22;37579;51.074;17.004;2023-02-15T08:17:25;24.40;53.00
39751;DHT22;37579;51.074;17.004;2023-02-15T08:19:51;24.40;52.90
39751;DHT22;37579;51.074;17.004;2023-02-15T08:22:17;24.40;52.90
39751;DHT22;37579;51.074;17.004;2023-02-15T08:24:43;24.40;52.90
39751;DHT22;37579;51.074;17.004;2023-02-15T08:27:10;24.40;52.80
39751;DHT22;37579;51.074;17.004;2023-02-15T08:29:37;24.40;52.80
39751;DHT22;37579;51.074;17.004;2023-02-15T08:32:06;24.30;52.80
39751;DHT22;37579;51.074;17.004;2023-02-15T08:34:35;24.30;52.80
39751;DHT22;37579;51.074;17.004;2023-02-15T08:37:02;24.30;52.80
39751;DHT22;37579;51.074;17.004;2023-02-15T08:39:28;24.30;52.80
39751;DHT22;37579;51.074;17.004;2023-02-15T08:41:54;24.30;52.80
39751;DHT22;37579;51.074;17.004;2023-02-15T08:44:20;24.30;53.50
39751;DHT22;37579;51.074;17.004;2023-02-15T08:46:47;24.30;52.80
39751;DHT22;37579;51.074;17.004;2023-02-15T08:49:17;24.30;52.70
39751;DHT22;37579;51.074;17.004;2023-02-15T08:51:43;24.20;52.70
39751;DHT22;37579;51.074;17.004;2023-02-15T08:54:13;24.20;52.80
39751;DHT22;37579;51.074;17.004;2023-02-15T08:56:40;24.20;52.80
39751;DHT22;37579;51.074;17.004;2023-02-15T08:59:11;24.20;52.80
39751;DHT22;37579;51.074;17.004;2023-02-15T09:01:37;24.20;52.80
39751;DHT22;37579;51.074;17.004;2023-02-15T09:04:05;24.20;52.80
39751;DHT22;37579;51.074;17.004;2023-02-15T09:06:35;24.20;52.80
39751;DHT22;37579;51.074;17.004;2023-02-15T09:09:01;24.20;52.70
39751;DHT22;37579;51.074;17.004;2023-02-15T09:11:30;24.20;52.50
39751;DHT22;37579;51.074;17.004;2023-02-15T09:13:58;24.30;52.50
39751;DHT22;37579;51.074;17.004;2023-02-15T09:16:27;24.40;51.80
39751;DHT22;37579;51.074;17.004;2023-02-15T09:18:54;24.40;51.50
39751;DHT22;37579;51.074;17.004;2023-02-15T09:21:22;24.40;51.60
39751;DHT22;37579;51.074;17.004;2023-02-15T09:23:50;24.40;51.80
39751;DHT22;37579;51.074;17.004;2023-02-15T09:26:20;24.50;52.00
39751;DHT22;37579;51.074;17.004;2023-02-15T09:28:47;24.50;51.80
39751;DHT22;37579;51.074;17.004;2023-02-15T09:31:18;24.50;51.90
39751;DHT22;37579;51.074;17.004;2023-02-15T09:33:46;24.50;52.00
39751;DHT22;37579;51.074;17.004;2023-02-15T09:36:21;24.50;52.20
39751;DHT22;37579;51.074;17.004;2023-02-15T09:38:52;24.50;52.30
39751;DHT22;37579;51.074;17.004;2023-02-15T09:55:14;24.60;52.50
39751;DHT22;37579;51.074;17.004;2023-02-15T10:03:25;24.70;52.70
39751;DHT22;37579;51.074;17.004;2023-02-15T10:06:55;24.70;52.60
39751;DHT22;37579;51.074;17.004;2023-02-15T10:09:23;24.70;52.60
39751;DHT22;37579;51.074;17.004;2023-02-15T10:15:00;24.80;52.40
39751;DHT22;37579;51.074;17.004;2023-02-15T10:23:30;24.80;52.40
39751;DHT22;37579;51.074;17.004;2023-02-15T10:26:11;24.70;52.30
39751;DHT22;37579;51.074;17.004;2023-02-15T10:28:51;24.60;51.40
39751;DHT22;37579;51.074;17.004;2023-02-15T10:31:27;24.60;51.30
39751;DHT22;37579;51.074;17.004;2023-02-15T10:34:18;24.60;51.50
39751;DHT22;37579;51.074;17.004;2023-02-15T10:42:29;24.60;51.50
39751;DHT22;37579;51.074;17.004;2023-02-15T10:50:56;24.40;51.40
39751;DHT22;37579;51.074;17.004;2023-02-15T10:58:41;24.30;51.50
39751;DHT22;37579;51.074;17.004;2023-02-15T11:01:32;24.20;51.60
39751;DHT22;37579;51.074;17.004;2023-02-15T11:06:56;24.20;51.70
39751;DHT22;37579;51.074;17.004;2023-02-15T11:09:27;24.20;51.80
39751;DHT22;37579;51.074;17.004;2023-02-15T11:11:56;24.10;51.70
39751;DHT22;37579;51.074;17.004;2023-02-15T11:14:55;24.10;51.70
39751;DHT22;37579;51.074;17.004;2023-02-15T11:17:30;24.10;51.70
39751;DHT22;37579;51.074;17.004;2023-02-15T11:20:15;24.10;51.70
39751;DHT22;37579;51.074;17.004;2023-02-15T11:22:42;24.10;51.70
39751;DHT22;37579;51.074;17.004;2023-02-15T11:25:30;24.10;51.70
39751;DHT22;37579;51.074;17.004;2023-02-15T11:27:57;24.00;51.70
39751;DHT22;37579;51.074;17.004;2023-02-15T11:30:27;24.00;51.70
39751;DHT22;37579;51.074;17.004;2023-02-15T11:32:57;24.00;51.60
39751;DHT22;37579;51.074;17.004;2023-02-15T11:35:28;24.00;51.60
39751;DHT22;37579;51.074;17.004;2023-02-15T11:38:18;24.00;51.70
39751;DHT22;37579;51.074;17.004;2023-02-15T11:41:01;24.00;51.60
39751;DHT22;37579;51.074;17.004;2023-02-15T11:43:58;24.00;51.60
39751;DHT22;37579;51.074;17.004;2023-02-15T11:46:26;24.00;51.50
39751;DHT22;37579;51.074;17.004;2023-02-15T11:48:52;24.00;51.60
39751;DHT22;37579;51.074;17.004;2023-02-15T11:51:21;24.00;51.70
39751;DHT22;37579;51.074;17.004;2023-02-15T11:53:48;24.00;51.60
39751;DHT22;37579;51.074;17.004;2023-02-15T11:56:22;24.00;51.70
39751;DHT22;37579;51.074;17.004;2023-02-15T11:58:59;24.00;51.60
39751;DHT22;37579;51.074;17.004;2023-02-15T12:01:45;24.00;51.60
39751;DHT22;37579;51.074;17.004;2023-02-15T12:04:38;24.00;51.60
39751;DHT22;37579;51.074;17.004;2023-02-15T12:07:32;24.00;51.60
39751;DHT22;37579;51.074;17.004;2023-02-15T12:12:34;23.90;51.30
39751;DHT22;37579;51.074;17.004;2023-02-15T12:15:06;23.90;51.50
39751;DHT22;37579;51.074;17.004;2023-02-15T12:22:45;23.90;51.40
39751;DHT22;37579;51.074;17.004;2023-02-15T12:25:25;23.80;47.40
39751;DHT22;37579;51.074;17.004;2023-02-15T12:27:52;23.10;42.00
39751;DHT22;37579;51.074;17.004;2023-02-15T12:30:23;23.30;47.00
39751;DHT22;37579;51.074;17.004;2023-02-15T12:33:39;23.50;48.10
39751;DHT22;37579;51.074;17.004;2023-02-15T12:35:38;23.60;48.20
39751;DHT22;37579;51.074;17.004;2023-02-15T12:40:37;23.70;48.90
39751;DHT22;37579;51.074;17.004;2023-02-15T12:43:04;23.70;48.80
39751;DHT22;37579;51.074;17.004;2023-02-15T12:45:37;23.70;48.90
39751;DHT22;37579;51.074;17.004;2023-02-15T12:50:44;23.70;49.00
39751;DHT22;37579;51.074;17.004;2023-02-15T12:53:21;23.80;49.10
39751;DHT22;37579;51.074;17.004;2023-02-15T12:55:54;23.80;49.20
39751;DHT22;37579;51.074;17.004;2023-02-15T12:58:25;23.80;49.20
39751;DHT22;37579;51.074;17.004;2023-02-15T13:01:17;23.80;49.30
39751;DHT22;37579;51.074;17.004;2023-02-15T13:06:27;23.80;50.00
39751;DHT22;37579;51.074;17.004;2023-02-15T13:09:15;23.80;50.30
39751;DHT22;37579;51.074;17.004;2023-02-15T13:11:44;23.80;50.70
39751;DHT22;37579;51.074;17.004;2023-02-15T13:14:22;23.80;51.00
39751;DHT22;37579;51.074;17.004;2023-02-15T13:16:53;23.80;51.20
39751;DHT22;37579;51.074;17.004;2023-02-15T13:19:39;23.80;51.20
39751;DHT22;37579;51.074;17.004;2023-02-15T13:22:10;23.70;51.10
39751;DHT22;37579;51.074;17.004;2023-02-15T13:24:44;23.70;51.20
39751;DHT22;37579;51.074;17.004;2023-02-15T13:27:36;23.70;51.10
39751;DHT22;37579;51.074;17.004;2023-02-15T13:30:24;23.70;51.10
39751;DHT22;37579;51.074;17.004;2023-02-15T13:32:58;23.70;51.10
39751;DHT22;37579;51.074;17.004;2023-02-15T13:35:29;23.70;51.20
39751;DHT22;37579;51.074;17.004;2023-02-15T13:51:11;23.60;51.10
39751;DHT22;37579;51.074;17.004;2023-02-15T13:54:04;23.70;51.20
39751;DHT22;37579;51.074;17.004;2023-02-15T14:08:11;23.60;51.00
39751;DHT22;37579;51.074;17.004;2023-02-15T14:17:09;23.60;50.90
39751;DHT22;37579;51.074;17.004;2023-02-15T14:19:47;23.60;50.80
39751;DHT22;37579;51.074;17.004;2023-02-15T14:25:21;23.60;51.20
39751;DHT22;37579;51.074;17.004;2023-02-15T14:30:29;23.60;51.80
39751;DHT22;37579;51.074;17.004;2023-02-15T14:33:01;23.70;52.00
39751;DHT22;37579;51.074;17.004;2023-02-15T14:35:30;23.70;52.20
39751;DHT22;37579;51.074;17.004;2023-02-15T14:43:50;23.70;52.10
39751;DHT22;37579;51.074;17.004;2023-02-15T14:49:05;23.80;52.00
39751;DHT22;37579;51.074;17.004;2023-02-15T15:02:45;23.90;52.20
39751;DHT22;37579;51.074;17.004;2023-02-15T15:05:23;23.90;52.10
39751;DHT22;37579;51.074;17.004;2023-02-15T15:07:53;23.90;52.90
39751;DHT22;37579;51.074;17.004;2023-02-15T15:12:53;24.00;52.40
39751;DHT22;37579;51.074;17.004;2023-02-15T15:18:09;24.00;52.60
39751;DHT22;37579;51.074;17.004;2023-02-15T15:25:50;24.00;52.60
39751;DHT22;37579;51.074;17.004;2023-02-15T15:31:06;24.00;52.80
39751;DHT22;37579;51.074;17.004;2023-02-15T15:48:22;24.10;51.80
39751;DHT22;37579;51.074;17.004;2023-02-15T15:50:53;24.10;51.90
39751;DHT22;37579;51.074;17.004;2023-02-15T15:53:24;24.10;51.80
39751;DHT22;37579;51.074;17.004;2023-02-15T15:55:56;24.20;51.80
39751;DHT22;37579;51.074;17.004;2023-02-15T15:58:23;24.20;51.80
39751;DHT22;37579;51.074;17.004;2023-02-15T16:01:16;24.20;51.70
39751;DHT22;37579;51.074;17.004;2023-02-15T16:03:54;24.20;51.60
39751;DHT22;37579;51.074;17.004;2023-02-15T16:06:35;24.20;51.60
39751;DHT22;37579;51.074;17.004;2023-02-15T16:11:36;24.20;51.50
39751;DHT22;37579;51.074;17.004;2023-02-15T16:14:15;24.20;51.50
39751;DHT22;37579;51.074;17.004;2023-02-15T16:16:48;24.20;51.60
39751;DHT22;37579;51.074;17.004;2023-02-15T16:19:26;24.20;51.80
39751;DHT22;37579;51.074;17.004;2023-02-15T16:21:54;24.20;51.80
39751;DHT22;37579;51.074;17.004;2023-02-15T16:27:40;24.20;52.10
39751;DHT22;37579;51.074;17.004;2023-02-15T16:32:46;24.30;52.20
39751;DHT22;37579;51.074;17.004;2023-02-15T16:35:18;24.20;52.20
39751;DHT22;37579;51.074;17.004;2023-02-15T16:37:44;24.20;52.30
39751;DHT22;37579;51.074;17.004;2023-02-15T16:40:36;24.20;52.30
39751;DHT22;37579;51.074;17.004;2023-02-15T16:43:06;24.20;52.50
39751;DHT22;37579;51.074;17.004;2023-02-15T16:45:36;24.20;52.60
39751;DHT22;37579;51.074;17.004;2023-02-15T16:48:10;24.20;52.80
39751;DHT22;37579;51.074;17.004;2023-02-15T16:50:39;24.20;52.90
39751;DHT22;37579;51.074;17.004;2023-02-15T16:53:08;24.10;52.90
39751;DHT22;37579;51.074;17.004;2023-02-15T16:55:41;24.10;52.90
39751;DHT22;37579;51.074;17.004;2023-02-15T16:58:14;24.10;53.00
39751;DHT22;37579;51.074;17.004;2023-02-15T17:00:42;24.10;52.90
39751;DHT22;37579;51.074;17.004;2023-02-15T17:16:36;24.00;53.50
39751;DHT22;37579;51.074;17.004;2023-02-15T17:19:16;24.00;53.60
39751;DHT22;37579;51.074;17.004;2023-02-15T17:21:50;24.00;53.70
39751;DHT22;37579;51.074;17.004;2023-02-15T17:24:28;24.00;53.70
39751;DHT22;37579;51.074;17.004;2023-02-15T17:27:00;24.00;53.80
39751;DHT22;37579;51.074;17.004;2023-02-15T17:29:37;24.00;54.20
39751;DHT22;37579;51.074;17.004;2023-02-15T17:32:05;23.90;54.20
39751;DHT22;37579;51.074;17.004;2023-02-15T17:34:48;23.90;54.40
39751;DHT22;37579;51.074;17.004;2023-02-15T17:39:56;23.90;54.90
39751;DHT22;37579;51.074;17.004;2023-02-15T17:42:22;23.90;55.00
39751;DHT22;37579;51.074;17.004;2023-02-15T17:44:48;23.90;54.90
39751;DHT22;37579;51.074;17.004;2023-02-15T17:47:20;24.00;54.90
39751;DHT22;37579;51.074;17.004;2023-02-15T17:49:48;24.00;54.90
39751;DHT22;37579;51.074;17.004;2023-02-15T17:52:17;24.00;54.80
39751;DHT22;37579;51.074;17.004;2023-02-15T17:54:43;24.00;54.80
39751;DHT22;37579;51.074;17.004;2023-02-15T17:57:29;24.10;54.70
39751;DHT22;37579;51.074;17.004;2023-02-15T17:59:56;24.10;54.60
39751;DHT22;37579;51.074;17.004;2023-02-15T18:02:40;24.10;54.80
39751;DHT22;37579;51.074;17.004;2023-02-15T18:05:25;24.00;54.70
39751;DHT22;37579;51.074;17.004;2023-02-15T18:08:14;24.10;54.90
39751;DHT22;37579;51.074;17.004;2023-02-15T18:10:59;24.10;55.00
39751;DHT22;37579;51.074;17.004;2023-02-15T18:13:44;24.10;54.90
39751;DHT22;37579;51.074;17.004;2023-02-15T18:16:22;24.10;55.00
39751;DHT22;37579;51.074;17.004;2023-02-15T18:18:49;24.10;55.10
39751;DHT22;37579;51.074;17.004;2023-02-15T18:21:15;24.20;55.80
39751;DHT22;37579;51.074;17.004;2023-02-15T18:23:41;24.20;55.10
39751;DHT22;37579;51.074;17.004;2023-02-15T18:26:11;24.20;55.70
39751;DHT22;37579;51.074;17.004;2023-02-15T18:28:41;24.20;55.00
39751;DHT22;37579;51.074;17.004;2023-02-15T18:31:07;24.20;55.00
39751;DHT22;37579;51.074;17.004;2023-02-15T18:33:37;24.30;55.00
39751;DHT22;37579;51.074;17.004;2023-02-15T18:36:06;24.20;55.00
39751;DHT22;37579;51.074;17.004;2023-02-15T18:38:33;24.30;55.00
39751;DHT22;37579;51.074;17.004;2023-02-15T18:41:00;24.30;55.10
39751;DHT22;37579;51.074;17.004;2023-02-15T18:43:26;24.30;55.00
39751;DHT22;37579;51.074;17.004;2023-02-15T18:45:52;24.20;50.10
39751;DHT22;37579;51.074;17.004;2023-02-15T18:48:18;24.20;53.30
39751;DHT22;37579;51.074;17.004;2023-02-15T18:50:44;24.10;53.60
39751;DHT22;37579;51.074;17.004;2023-02-15T18:53:20;24.10;53.70
39751;DHT22;37579;51.074;17.004;2023-02-15T18:55:46;24.20;53.60